createdAt,value
2022-12-22T00:03:08.475Z,3.7
2022-12-22T00:08:08.404Z,3.7
2022-12-22T00:13:08.350Z,3.7
2022-12-22T00:18:08.405Z,3.7
2022-12-22T00:23:08.344Z,3.7
2022-12-22T00:28:08.452Z,3.7
2022-12-22T00:33:08.345Z,3.7
2022-12-22T00:38:08.442Z,3.7
2022-12-22T00:43:08.354Z,3.8
2022-12-22T00:48:08.400Z,3.8
2022-12-22T00:53:08.420Z,3.7
2022-12-22T00:58:08.404Z,3.7
2022-12-22T01:03:08.540Z,3.7
2022-12-22T01:08:08.441Z,3.7
2022-12-22T01:13:08.355Z,3.7
2022-12-22T01:18:08.431Z,3.7
2022-12-22T01:23:08.432Z,3.7
2022-12-22T01:28:08.479Z,3.8
2022-12-22T01:33:08.375Z,3.7
2022-12-22T01:38:08.449Z,3.7
2022-12-22T01:43:08.378Z,3.7
2022-12-22T01:48:08.451Z,3.6
2022-12-22T01:53:08.360Z,3.7
2022-12-22T01:58:08.452Z,3.7
2022-12-22T02:03:08.461Z,3.7
2022-12-22T02:08:08.434Z,3.7
2022-12-22T02:13:08.396Z,3.6
2022-12-22T02:18:08.474Z,3.6
2022-12-22T02:23:08.371Z,3.7
2022-12-22T02:28:08.494Z,3.7
2022-12-22T02:33:10.185Z,3.7
2022-12-22T02:38:08.492Z,3.8
2022-12-22T02:43:08.372Z,3.7
2022-12-22T02:48:08.478Z,3.7
2022-12-22T02:53:08.430Z,3.7
2022-12-22T02:58:08.483Z,3.7
2022-12-22T03:03:08.675Z,3.8
2022-12-22T03:08:08.894Z,3.7
2022-12-22T03:13:08.430Z,3.7
2022-12-22T03:18:08.442Z,3.7
2022-12-22T03:23:08.392Z,3.7
2022-12-22T03:28:08.499Z,3.7
2022-12-22T03:33:08.429Z,3.7
2022-12-22T03:38:08.456Z,3.7
2022-12-22T03:43:08.442Z,3.7
2022-12-22T03:48:08.463Z,3.7
2022-12-22T03:53:08.404Z,3.7
2022-12-22T03:58:08.459Z,3.6
2022-12-22T04:03:08.755Z,3.7
2022-12-22T04:08:08.493Z,3.6
2022-12-22T04:13:08.351Z,3.6
2022-12-22T04:18:08.500Z,3.6
2022-12-22T04:23:08.405Z,3.6
2022-12-22T04:28:08.525Z,3.6
2022-12-22T04:33:08.414Z,3.6
2022-12-22T04:38:08.498Z,3.6
2022-12-22T04:48:08.582Z,3.7
2022-12-22T04:53:08.423Z,3.7
2022-12-22T04:58:08.512Z,3.7
2022-12-22T05:03:08.501Z,3.7
2022-12-22T05:08:08.473Z,3.7
2022-12-22T05:13:08.416Z,3.6
2022-12-22T05:18:08.473Z,3.6
2022-12-22T05:23:08.442Z,3.5
2022-12-22T05:28:08.519Z,3.5
2022-12-22T05:33:08.422Z,3.5
2022-12-22T05:38:08.489Z,3.5
2022-12-22T05:43:08.417Z,3.5
2022-12-22T05:48:08.478Z,3.5
2022-12-22T05:53:08.446Z,3.5
2022-12-22T05:58:08.480Z,3.5
2022-12-22T06:03:08.660Z,3.5
2022-12-22T06:08:08.539Z,3.5
2022-12-22T06:13:08.441Z,3.5
2022-12-22T06:18:08.533Z,3.7
2022-12-22T06:23:08.495Z,3.7
2022-12-22T06:28:08.547Z,3.7
2022-12-22T06:33:08.430Z,3.7
2022-12-22T06:38:08.521Z,3.7
2022-12-22T06:43:09.343Z,3.7
2022-12-22T06:48:08.533Z,3.7
2022-12-22T06:53:08.451Z,3.7
2022-12-22T06:58:08.496Z,3.7
2022-12-22T07:03:08.814Z,3.7
2022-12-22T07:08:09.406Z,3.7
2022-12-22T07:13:08.466Z,3.7
2022-12-22T07:18:08.537Z,3.7
2022-12-22T07:23:08.454Z,3.7
2022-12-22T07:28:08.525Z,3.7
2022-12-22T07:33:08.443Z,3.7
2022-12-22T07:38:08.532Z,3.7
2022-12-22T07:43:08.453Z,3.7
2022-12-22T07:48:08.596Z,3.7
2022-12-22T07:53:08.441Z,3.7
2022-12-22T07:58:08.510Z,3.7
2022-12-22T08:03:08.641Z,3.7
2022-12-22T08:08:08.529Z,3.7
2022-12-22T08:13:08.504Z,3.7
2022-12-22T08:18:08.559Z,3.7
2022-12-22T08:23:08.485Z,3.8
2022-12-22T08:28:08.585Z,3.8
2022-12-22T08:33:08.442Z,3.8
2022-12-22T08:38:08.597Z,3.8
2022-12-22T08:43:08.470Z,3.9
2022-12-22T08:48:08.567Z,3.8
2022-12-22T08:53:18.803Z,4.0
2022-12-22T08:58:08.475Z,4.0
2022-12-22T09:03:08.563Z,4.0
2022-12-22T09:08:08.485Z,4.1
2022-12-22T09:13:08.478Z,4.1
2022-12-22T09:18:08.553Z,4.1
2022-12-22T09:23:08.494Z,4.2
2022-12-22T09:33:08.484Z,4.2
2022-12-22T09:38:08.498Z,4.2
2022-12-22T09:43:08.568Z,4.2
2022-12-22T09:48:08.578Z,4.2
2022-12-22T09:53:08.482Z,4.2
2022-12-22T09:58:12.362Z,4.3
2022-12-22T10:03:08.564Z,4.3
2022-12-22T10:08:08.574Z,4.5
2022-12-22T10:13:08.461Z,4.5
2022-12-22T10:18:08.576Z,4.5
2022-12-22T10:23:08.473Z,4.5
2022-12-22T10:28:08.567Z,4.7
2022-12-22T10:33:08.485Z,4.8
2022-12-22T10:38:21.387Z,4.8
2022-12-22T10:43:08.494Z,4.9
2022-12-22T10:48:08.570Z,4.8
2022-12-22T10:53:08.549Z,4.9
2022-12-22T10:58:08.578Z,5.0
2022-12-22T11:03:08.624Z,5.0
2022-12-22T11:08:08.607Z,5.0
2022-12-22T11:13:08.494Z,5.2
2022-12-22T11:18:08.582Z,5.3
2022-12-22T11:23:08.510Z,5.4
2022-12-22T11:28:08.618Z,5.5
2022-12-22T11:33:08.491Z,5.5
2022-12-22T11:38:08.511Z,5.4
2022-12-22T11:43:08.516Z,5.4
2022-12-22T11:48:08.589Z,5.3
2022-12-22T11:53:08.520Z,5.2
2022-12-22T11:58:08.579Z,5.2
2022-12-22T12:03:08.587Z,5.3
2022-12-22T12:08:08.581Z,5.3
2022-12-22T12:13:08.538Z,5.3
2022-12-22T12:18:08.582Z,5.3
2022-12-22T12:23:08.531Z,5.4
2022-12-22T12:28:08.634Z,5.5
2022-12-22T12:33:08.502Z,5.5
2022-12-22T12:38:08.578Z,5.5
2022-12-22T12:43:12.602Z,5.5
2022-12-22T12:48:08.678Z,5.5
2022-12-22T12:53:08.533Z,5.6
2022-12-22T12:58:08.617Z,5.7
2022-12-22T13:03:08.749Z,5.7
2022-12-22T13:08:08.601Z,5.7
2022-12-22T13:13:08.541Z,5.7
2022-12-22T13:18:08.796Z,5.8
2022-12-22T13:23:08.541Z,5.8
2022-12-22T13:28:08.663Z,5.7
2022-12-22T13:33:08.528Z,5.7
2022-12-22T13:38:08.599Z,5.7
2022-12-22T13:43:08.639Z,5.7
2022-12-22T13:48:08.596Z,5.7
2022-12-22T13:53:08.524Z,5.7
2022-12-22T13:58:08.603Z,5.6
2022-12-22T14:03:09.330Z,5.7
2022-12-22T14:08:08.657Z,5.7
2022-12-22T14:13:08.529Z,5.7
2022-12-22T14:18:08.604Z,5.7
2022-12-22T14:23:08.552Z,5.6
2022-12-22T14:28:08.643Z,5.7
2022-12-22T14:33:08.558Z,5.7
2022-12-22T14:38:08.646Z,5.7
2022-12-22T14:43:08.583Z,5.7
2022-12-22T14:48:08.609Z,5.7
2022-12-22T14:53:08.602Z,5.7
2022-12-22T14:58:08.621Z,5.7
2022-12-22T15:03:08.700Z,5.7
2022-12-22T15:08:09.617Z,5.7
2022-12-22T15:13:08.560Z,5.7
2022-12-22T15:18:08.614Z,5.7
2022-12-22T15:23:08.563Z,5.7
2022-12-22T15:28:08.625Z,5.7
2022-12-22T15:33:08.562Z,5.7
2022-12-22T15:38:08.604Z,5.6
2022-12-22T15:43:22.356Z,5.6
2022-12-22T15:48:08.647Z,5.6
2022-12-22T15:53:08.590Z,5.7
2022-12-22T15:58:08.608Z,5.7
2022-12-22T16:03:08.609Z,5.8
2022-12-22T16:08:13.039Z,5.8
2022-12-22T16:13:08.556Z,5.8
2022-12-22T16:18:08.639Z,5.8
2022-12-22T16:23:08.536Z,5.8
2022-12-22T16:28:08.659Z,5.8
2022-12-22T16:33:08.549Z,5.8
2022-12-22T16:38:13.015Z,5.7
2022-12-22T16:44:13.433Z,5.7
2022-12-22T16:48:08.617Z,5.7
2022-12-22T16:53:08.575Z,5.7
2022-12-22T16:58:13.556Z,5.7
2022-12-22T17:03:08.843Z,5.6
2022-12-22T17:08:08.618Z,5.5
2022-12-22T17:13:08.560Z,5.6
2022-12-22T17:18:08.614Z,5.6
2022-12-22T17:23:08.635Z,5.6
2022-12-22T17:28:08.658Z,5.6
2022-12-22T17:33:08.563Z,5.6
2022-12-22T17:38:08.716Z,5.5
2022-12-22T17:43:08.552Z,5.5
2022-12-22T17:53:08.624Z,5.5
2022-12-22T17:58:08.611Z,5.5
2022-12-22T18:03:08.707Z,5.5
2022-12-22T18:08:08.650Z,5.5
2022-12-22T18:13:08.559Z,5.4
2022-12-22T18:23:08.550Z,5.4
2022-12-22T18:28:08.653Z,5.5
2022-12-22T18:33:08.612Z,5.4
2022-12-22T18:38:08.613Z,5.4
2022-12-22T18:43:08.572Z,5.4
2022-12-22T18:48:08.610Z,5.4
2022-12-22T18:53:08.571Z,5.3
2022-12-22T18:58:08.613Z,5.3
2022-12-22T19:03:08.855Z,5.3
2022-12-22T19:08:08.620Z,5.3
2022-12-22T19:13:08.589Z,5.4
2022-12-22T19:18:08.623Z,5.3
2022-12-22T19:23:08.556Z,5.3
2022-12-22T19:28:08.671Z,5.3
2022-12-22T19:33:08.642Z,5.3
2022-12-22T19:38:08.647Z,5.3
2022-12-22T19:43:08.603Z,5.4
2022-12-22T19:48:08.643Z,5.4
2022-12-22T19:53:08.575Z,5.4
2022-12-22T19:58:08.641Z,5.4
2022-12-22T20:03:08.675Z,5.4
2022-12-22T20:08:08.680Z,5.3
2022-12-22T20:13:08.578Z,5.3
2022-12-22T20:18:08.680Z,5.3
2022-12-22T20:23:08.591Z,5.3
2022-12-22T20:28:08.682Z,5.3
2022-12-22T20:33:08.651Z,5.3
2022-12-22T20:38:08.635Z,5.3
2022-12-22T20:43:08.594Z,5.3
2022-12-22T20:48:08.680Z,5.3
2022-12-22T20:53:08.578Z,5.3
2022-12-22T20:58:08.643Z,5.3
2022-12-22T21:03:08.668Z,5.3
2022-12-22T21:08:08.644Z,5.3
2022-12-22T21:13:08.600Z,5.3
2022-12-22T21:18:08.639Z,5.3
2022-12-22T21:23:08.623Z,5.3
2022-12-22T21:28:08.696Z,5.3
2022-12-22T21:33:08.616Z,5.3
2022-12-22T21:38:08.724Z,5.4
2022-12-22T21:43:08.598Z,5.4
2022-12-22T21:48:08.656Z,5.4
2022-12-22T21:53:08.604Z,5.4
2022-12-22T21:58:08.654Z,5.3
2022-12-22T22:03:08.721Z,5.3
2022-12-22T22:08:08.657Z,5.4
2022-12-22T22:13:08.602Z,5.3
2022-12-22T22:18:08.705Z,5.3
2022-12-22T22:23:08.596Z,5.4
2022-12-22T22:28:08.702Z,5.4
2022-12-22T22:33:08.620Z,5.4
2022-12-22T22:38:08.709Z,5.4
2022-12-22T22:43:08.589Z,5.4
2022-12-22T22:48:11.183Z,5.4
2022-12-22T22:53:08.608Z,5.3
2022-12-22T22:58:08.662Z,5.3
2022-12-22T23:03:08.697Z,5.3
2022-12-22T23:08:08.664Z,5.3
2022-12-22T23:13:08.642Z,5.3
2022-12-22T23:18:08.712Z,5.4
2022-12-22T23:23:08.607Z,5.4
2022-12-22T23:28:08.783Z,5.5
2022-12-22T23:33:08.633Z,5.4
2022-12-22T23:38:08.689Z,5.4
2022-12-22T23:43:08.605Z,5.4
2022-12-22T23:48:08.718Z,5.3
2022-12-22T23:53:08.629Z,5.3
2022-12-22T23:58:08.710Z,5.3
